Time;durP1;ratioP1;P1;durP2;ratioP2;P2;SDS_P1;SDS_P2;PMS_P1;PMS_P2;Temp;Humidity;BMP_temperature;BMP_pressure;BME280_temperature;BME280_humidity;BME280_pressure;Samples;Min_cycle;Max_cycle;Signal;HPM_P1;HPM_P2
2022/06/02 00:00:53;;;;;;;11.15;8.00;;;11.70;99.90;;;;;;4182491;28;20178;-92
2022/06/02 00:03:13;;;;;;;10.73;7.63;;;11.80;99.90;;;;;;4182452;28;20173;-90
2022/06/02 00:05:22;;;;;;;11.25;7.93;;;11.80;99.90;;;;;;4182209;28;20168;-90
2022/06/02 00:07:38;;;;;;;10.25;7.93;;;11.90;99.90;;;;;;4181998;28;20659;-90
2022/06/02 00:10:03;;;;;;;17.27;8.63;;;11.90;99.90;;;;;;4182051;28;20252;-91
2022/06/02 00:12:27;;;;;;;11.65;7.63;;;11.80;99.90;;;;;;4182043;28;20314;-91
2022/06/02 00:14:42;;;;;;;9.53;7.37;;;11.70;99.90;;;;;;4182061;28;20218;-92
2022/06/02 00:16:43;;;;;;;13.90;8.10;;;11.70;99.90;;;;;;4182241;28;20285;-90
2022/06/02 00:18:58;;;;;;;14.07;7.95;;;11.60;99.90;;;;;;4182211;28;20215;-92
2022/06/02 00:21:53;;;;;;;14.63;8.50;;;11.50;99.90;;;;;;4182104;28;20171;-91
2022/06/02 00:23:58;;;;;;;9.75;7.50;;;11.30;99.90;;;;;;4116443;28;20193;-90
2022/06/02 00:26:21;;;;;;;11.57;7.25;;;11.40;99.90;;;;;;4167640;28;20183;-91
2022/06/02 00:28:54;;;;;;;10.40;7.78;;;11.40;99.90;;;;;;4169678;28;20205;-90
2022/06/02 00:31:05;;;;;;;11.75;8.25;;;11.50;99.90;;;;;;4173801;28;20245;-90
2022/06/02 00:33:58;;;;;;;9.90;7.90;;;11.60;99.90;;;;;;4181936;28;20159;-91
2022/06/02 00:36:10;;;;;;;10.23;7.63;;;11.60;99.90;;;;;;4181997;28;20176;-90
2022/06/02 00:38:30;;;;;;;11.30;8.10;;;11.50;99.90;;;;;;4198377;28;20318;-90
2022/06/02 00:40:33;;;;;;;10.75;8.38;;;11.40;99.90;;;;;;4182234;28;20186;-90
2022/06/02 00:42:40;;;;;;;11.57;8.30;;;11.20;99.90;;;;;;4181895;28;20175;-92
2022/06/02 00:45:12;;;;;;;10.53;7.67;;;11.20;99.90;;;;;;4181739;28;20175;-90
2022/06/02 00:47:35;;;;;;;11.17;7.70;;;11.20;99.90;;;;;;4198154;28;20186;-90
2022/06/02 00:49:59;;;;;;;13.23;7.73;;;11.20;99.90;;;;;;4181669;28;20176;-90
2022/06/02 00:52:08;;;;;;;12.93;8.10;;;11.30;99.90;;;;;;4199508;28;20254;-91
2022/06/02 00:59:46;;;;;;;9.73;7.20;;;10.80;99.90;;;;;;4197828;28;20219;-90
2022/06/02 01:01:46;;;;;;;12.50;7.83;;;10.80;99.90;;;;;;4181259;28;20175;-91
2022/06/02 01:03:48;;;;;;;13.87;8.63;;;10.60;99.90;;;;;;4181722;28;20266;-90
2022/06/02 01:06:01;;;;;;;11.27;8.30;;;10.50;99.90;;;;;;4197659;28;20555;-90
2022/06/02 01:08:37;;;;;;;11.87;8.90;;;10.50;99.90;;;;;;4181011;28;20202;-91
2022/06/02 01:10:54;;;;;;;10.40;8.17;;;10.60;99.90;;;;;;4181428;28;20187;-91
2022/06/02 01:13:04;;;;;;;11.47;8.60;;;10.60;99.90;;;;;;4181334;28;20624;-90
2022/06/02 01:15:14;;;;;;;11.77;8.60;;;10.70;99.90;;;;;;4181614;28;20179;-90
2022/06/02 01:17:44;;;;;;;14.13;8.40;;;10.80;99.90;;;;;;4180611;28;20199;-90
2022/06/02 01:19:52;;;;;;;12.63;8.63;;;10.90;99.90;;;;;;4197824;28;20277;-92
2022/06/02 01:22:18;;;;;;;13.17;8.97;;;10.90;99.90;;;;;;4181302;28;20798;-90
2022/06/02 01:24:34;;;;;;;12.53;9.00;;;10.90;99.90;;;;;;4158261;28;20267;-92
2022/06/02 01:26:48;;;;;;;13.13;9.03;;;10.90;99.90;;;;;;4181169;28;20628;-90
2022/06/02 01:29:01;;;;;;;13.10;9.17;;;10.80;99.90;;;;;;4197652;28;20657;-91
2022/06/02 01:31:34;;;;;;;12.80;8.80;;;10.80;99.90;;;;;;4183020;28;20186;-89
2022/06/02 01:34:16;;;;;;;12.00;9.20;;;10.90;99.90;;;;;;4138570;28;20291;-89
2022/06/02 01:36:48;;;;;;;12.63;9.07;;;10.80;99.90;;;;;;4188632;28;20175;-90
2022/06/02 01:38:51;;;;;;;14.43;9.13;;;10.80;99.90;;;;;;4197600;28;20211;-90
2022/06/02 01:41:23;;;;;;;13.97;9.67;;;10.70;99.90;;;;;;4181240;28;20171;-91
2022/06/02 01:43:49;;;;;;;12.10;8.83;;;10.70;99.90;;;;;;4197698;28;20182;-90
2022/06/02 01:46:08;;;;;;;14.50;9.83;;;10.80;99.90;;;;;;4181035;28;20277;-93
2022/06/02 01:48:29;;;;;;;15.83;9.30;;;10.80;99.90;;;;;;4180920;28;20630;-92
2022/06/02 01:50:41;;;;;;;14.33;9.47;;;10.80;99.90;;;;;;4180982;28;20599;-90
2022/06/02 01:52:54;;;;;;;10.70;8.20;;;10.90;99.90;;;;;;4180742;28;20274;-90
2022/06/02 01:55:09;;;;;;;11.80;8.73;;;10.90;99.90;;;;;;4181066;28;20175;-93
2022/06/02 01:57:18;;;;;;;16.50;9.77;;;10.90;99.90;;;;;;4181075;28;20225;-91
2022/06/02 01:59:48;;;;;;;11.25;8.35;;;10.90;99.90;;;;;;4180788;28;20207;-91
2022/06/02 02:02:07;;;;;;;13.00;8.63;;;10.80;99.90;;;;;;4180863;28;20175;-90
2022/06/02 02:04:14;;;;;;;12.47;8.63;;;10.70;99.90;;;;;;4181238;28;20588;-91
2022/06/02 02:06:49;;;;;;;15.07;9.30;;;10.60;99.90;;;;;;4181062;28;20217;-90
2022/06/02 02:09:12;;;;;;;12.87;8.93;;;10.50;99.90;;;;;;4197400;28;20261;-90
2022/06/02 02:11:12;;;;;;;17.27;10.07;;;10.40;99.90;;;;;;4180918;28;20180;-90
2022/06/02 02:13:32;;;;;;;13.83;9.93;;;10.30;99.90;;;;;;4180777;28;20660;-91
2022/06/02 02:16:13;;;;;;;13.87;10.47;;;10.40;99.90;;;;;;4180866;28;20278;-91
2022/06/02 02:18:43;;;;;;;12.53;9.47;;;10.50;99.90;;;;;;4186877;28;20228;-91
2022/06/02 02:21:04;;;;;;;13.07;9.07;;;10.50;99.90;;;;;;4180899;28;20579;-91
2022/06/02 02:23:31;;;;;;;15.60;9.10;;;10.50;99.90;;;;;;4180897;28;20160;-90
2022/06/02 02:25:57;;;;;;;12.57;9.20;;;10.40;99.90;;;;;;4180655;28;20183;-90
2022/06/02 02:28:48;;;;;;;13.93;9.37;;;10.10;99.90;;;;;;4180698;28;20205;-90
2022/06/02 02:31:06;;;;;;;14.63;10.03;;;10.00;99.90;;;;;;4133824;28;20255;-91
2022/06/02 02:33:30;;;;;;;14.07;9.80;;;10.10;99.90;;;;;;4171851;28;20210;-91
2022/06/02 02:35:59;;;;;;;12.03;9.70;;;10.20;99.90;;;;;;4183946;28;20198;-91
2022/06/02 02:38:25;;;;;;;14.03;9.67;;;10.20;99.90;;;;;;4200081;28;20656;-90
2022/06/02 02:40:28;;;;;;;14.50;9.57;;;10.10;99.90;;;;;;4183943;28;20187;-90
2022/06/02 02:42:36;;;;;;;14.53;10.43;;;10.10;99.90;;;;;;4183711;28;20199;-90
2022/06/02 02:45:06;;;;;;;14.50;10.17;;;10.00;99.90;;;;;;4183702;28;20177;-90
2022/06/02 02:47:18;;;;;;;15.00;10.37;;;10.00;99.90;;;;;;4200004;28;20202;-90
2022/06/02 02:49:24;;;;;;;19.57;12.00;;;10.00;99.90;;;;;;4183430;28;20265;-90
2022/06/02 02:51:42;;;;;;;17.53;12.37;;;10.00;99.90;;;;;;4199914;28;20221;-90
2022/06/02 02:54:03;;;;;;;18.83;12.07;;;10.20;99.90;;;;;;4183459;28;20633;-90
2022/06/02 02:56:22;;;;;;;19.97;13.43;;;10.20;99.90;;;;;;4183303;28;20168;-90
2022/06/02 02:58:45;;;;;;;20.40;13.60;;;10.20;99.90;;;;;;4199818;28;20251;-91
2022/06/02 03:01:27;;;;;;;17.23;12.30;;;10.20;99.90;;;;;;4183400;28;20175;-91
2022/06/02 03:03:47;;;;;;;16.37;10.90;;;10.30;99.90;;;;;;4153123;28;20176;-90
2022/06/02 03:05:59;;;;;;;17.93;10.73;;;10.20;99.90;;;;;;4183220;28;20167;-90
2022/06/02 03:08:12;;;;;;;15.07;10.97;;;10.10;99.90;;;;;;4183047;28;20199;-91
2022/06/02 03:10:31;;;;;;;16.17;10.60;;;10.10;99.90;;;;;;4183181;28;20179;-90
2022/06/02 03:13:03;;;;;;;19.37;10.93;;;10.10;99.90;;;;;;4199741;28;20216;-90
2022/06/02 03:15:20;;;;;;;19.67;11.30;;;10.10;99.90;;;;;;4199825;28;20174;-91
2022/06/02 03:17:55;;;;;;;17.80;11.40;;;10.00;99.90;;;;;;4182717;28;20191;-90
2022/06/02 03:19:59;;;;;;;17.57;11.70;;;10.00;99.90;;;;;;4199789;28;20208;-89
2022/06/02 03:22:34;;;;;;;18.43;12.90;;;9.90;99.90;;;;;;4183282;28;20179;-91
2022/06/02 03:25:02;;;;;;;19.97;13.97;;;9.90;99.90;;;;;;4183161;28;20258;-91
2022/06/02 03:27:23;;;;;;;19.83;13.97;;;9.90;99.90;;;;;;4199366;28;20194;-91
2022/06/02 03:29:39;;;;;;;20.83;13.60;;;10.00;99.90;;;;;;4182979;28;20683;-90
2022/06/02 03:32:21;;;;;;;18.67;13.60;;;10.10;99.90;;;;;;4199441;28;20202;-90
2022/06/02 03:34:37;;;;;;;19.60;12.97;;;10.10;99.90;;;;;;4199560;28;20217;-91
2022/06/02 03:37:34;;;;;;;18.87;12.57;;;10.10;99.90;;;;;;4182976;28;20186;-90
2022/06/02 03:40:17;;;;;;;22.20;12.87;;;10.20;99.90;;;;;;4104253;28;20532;-91
2022/06/02 03:42:51;;;;;;;20.67;14.30;;;9.90;99.90;;;;;;4199520;28;20593;-91
2022/06/02 03:45:22;;;;;;;22.37;14.07;;;10.00;99.90;;;;;;4182469;28;20246;-90
2022/06/02 03:47:40;;;;;;;20.80;13.93;;;10.00;99.90;;;;;;4171770;28;20204;-91
2022/06/02 03:49:57;;;;;;;23.50;14.63;;;9.80;99.90;;;;;;4182665;28;20241;-91
2022/06/02 03:52:20;;;;;;;21.07;14.73;;;9.70;99.90;;;;;;4199257;28;20670;-91
2022/06/02 03:54:45;;;;;;;23.50;13.63;;;9.80;99.90;;;;;;4172252;28;20567;-90
2022/06/02 03:57:04;;;;;;;22.10;14.17;;;9.90;99.90;;;;;;4198898;28;20701;-91
2022/06/02 03:59:43;;;;;;;18.07;13.43;;;10.00;99.90;;;;;;4182137;28;20218;-91
2022/06/02 04:01:56;;;;;;;21.33;14.50;;;10.10;99.90;;;;;;4184745;28;20175;-92
2022/06/02 04:04:32;;;;;;;24.07;13.33;;;10.10;99.90;;;;;;4209599;28;20183;-91
2022/06/02 04:07:02;;;;;;;19.67;13.00;;;10.10;99.90;;;;;;4187335;28;20270;-89
2022/06/02 04:09:19;;;;;;;25.23;14.43;;;10.20;99.90;;;;;;4182376;28;20199;-90
2022/06/02 04:14:17;;;;;;;20.13;13.57;;;11.60;99.90;;;;;;4215558;28;20244;-89
2022/06/02 04:16:23;;;;;;;19.43;12.73;;;11.80;99.90;;;;;;4182220;28;20162;-90
2022/06/02 04:18:50;;;;;;;20.20;12.57;;;11.70;99.90;;;;;;4198371;28;20263;-92
2022/06/02 04:21:09;;;;;;;19.13;12.00;;;11.60;99.90;;;;;;4182166;28;20206;-90
2022/06/02 04:23:40;;;;;;;20.57;12.53;;;11.30;99.90;;;;;;4182098;28;20167;-89
2022/06/02 04:25:59;;;;;;;20.90;12.27;;;11.00;99.90;;;;;;4182114;28;20529;-91
2022/06/02 04:28:05;;;;;;;20.23;12.90;;;10.90;99.90;;;;;;4198455;28;20215;-90
2022/06/02 04:30:12;;;;;;;22.63;13.53;;;10.80;99.90;;;;;;4182088;28;20197;-91
2022/06/02 04:32:40;;;;;;;18.50;12.50;;;10.70;99.90;;;;;;4198583;28;20248;-92
2022/06/02 04:34:59;;;;;;;27.07;14.60;;;10.50;99.90;;;;;;4181775;28;20184;-92
2022/06/02 04:37:25;;;;;;;24.77;14.83;;;10.50;99.90;;;;;;4181875;28;20171;-90
2022/06/02 04:39:52;;;;;;;26.43;15.67;;;11.10;99.90;;;;;;4182027;28;20179;-90
2022/06/02 04:42:22;;;;;;;25.07;16.50;;;11.30;99.90;;;;;;4198355;28;20265;-90
2022/06/02 04:44:43;;;;;;;29.87;17.90;;;11.40;99.90;;;;;;4181823;28;20186;-90
2022/06/02 04:47:03;;;;;;;32.20;17.77;;;11.40;99.90;;;;;;4181958;28;20185;-90
2022/06/02 04:49:13;;;;;;;30.60;17.87;;;11.30;99.90;;;;;;4181987;28;20711;-89
2022/06/02 04:51:34;;;;;;;27.43;18.00;;;11.20;99.90;;;;;;4198298;28;20217;-90
2022/06/02 04:53:47;;;;;;;29.60;18.37;;;11.10;99.90;;;;;;4181016;28;20188;-91
2022/06/02 04:56:27;;;;;;;26.80;16.73;;;11.00;99.90;;;;;;4198597;28;20277;-91
2022/06/02 04:58:59;;;;;;;24.17;16.13;;;10.40;99.90;;;;;;4166417;28;20210;-90
2022/06/02 05:01:12;;;;;;;22.50;13.80;;;10.20;99.90;;;;;;4181578;28;20541;-90
2022/06/02 05:03:27;;;;;;;18.63;13.60;;;10.10;99.90;;;;;;4197980;28;20578;-90
2022/06/02 05:05:40;;;;;;;24.90;13.50;;;10.20;99.90;;;;;;4181282;28;20180;-90
2022/06/02 05:08:29;;;;;;;20.73;13.30;;;10.30;99.90;;;;;;4181344;28;20191;-91
2022/06/02 05:10:51;;;;;;;18.47;12.67;;;10.40;99.90;;;;;;4148168;28;20208;-91
2022/06/02 05:13:15;;;;;;;19.87;12.53;;;10.40;99.90;;;;;;4148208;28;20565;-94
2022/06/02 05:15:40;;;;;;;19.90;13.77;;;10.50;99.90;;;;;;4184247;28;20182;-92
2022/06/02 05:17:43;;;;;;;23.77;14.10;;;10.50;99.90;;;;;;4197941;28;20218;-92
2022/06/02 05:20:20;;;;;;;21.07;14.17;;;10.60;99.90;;;;;;4198022;28;20174;-91
2022/06/02 05:22:46;;;;;;;20.87;14.33;;;10.80;99.90;;;;;;4197686;28;20217;-91
2022/06/02 05:25:27;;;;;;;20.20;14.33;;;11.00;99.90;;;;;;4181409;28;20618;-91
2022/06/02 05:28:01;;;;;;;26.23;16.20;;;11.20;99.90;;;;;;4197548;28;20564;-91
2022/06/02 05:30:14;;;;;;;21.50;15.00;;;11.40;99.90;;;;;;4181225;28;20671;-92
2022/06/02 05:32:30;;;;;;;25.33;15.73;;;11.60;99.90;;;;;;4197966;28;20182;-92
2022/06/02 05:34:49;;;;;;;20.07;14.40;;;11.70;99.90;;;;;;4181231;28;20176;-91
2022/06/02 05:37:24;;;;;;;23.17;15.23;;;11.90;99.90;;;;;;4197822;28;20202;-92
2022/06/02 05:39:46;;;;;;;22.45;14.68;;;12.00;99.90;;;;;;4181152;28;20187;-91
2022/06/02 05:42:02;;;;;;;19.80;14.32;;;12.20;99.90;;;;;;4197785;28;20232;-92
2022/06/02 05:44:14;;;;;;;19.93;14.40;;;12.40;99.90;;;;;;4181360;28;20190;-91
2022/06/02 05:46:30;;;;;;;20.98;15.20;;;12.50;99.90;;;;;;4180961;28;20207;-91
2022/06/02 05:48:51;;;;;;;22.25;15.13;;;12.70;99.90;;;;;;4180904;28;20249;-91
2022/06/02 05:51:29;;;;;;;22.35;15.40;;;12.90;99.90;;;;;;4181038;28;20175;-90
2022/06/02 05:53:51;;;;;;;22.48;15.57;;;13.10;99.90;;;;;;4180405;28;20258;-91
2022/06/02 05:56:33;;;;;;;20.83;15.55;;;13.20;99.90;;;;;;4181381;28;20306;-92
2022/06/02 05:59:07;;;;;;;21.38;14.88;;;13.20;99.90;;;;;;4180992;28;20199;-92
2022/06/02 06:01:17;;;;;;;22.98;14.77;;;13.30;99.90;;;;;;4197705;28;20178;-93
2022/06/02 06:03:35;;;;;;;17.63;13.77;;;13.40;99.90;;;;;;4181052;28;20222;-91
2022/06/02 06:05:45;;;;;;;21.05;14.13;;;13.50;99.90;;;;;;4200792;28;20739;-92
2022/06/02 06:08:14;;;;;;;18.13;14.07;;;13.60;99.90;;;;;;4183832;28;20575;-90
2022/06/02 06:10:23;;;;;;;19.75;14.45;;;13.80;99.90;;;;;;4181951;28;20187;-90
2022/06/02 06:12:52;;;;;;;20.10;15.07;;;13.90;99.90;;;;;;4200928;28;20174;-91
2022/06/02 06:14:58;;;;;;;25.05;14.63;;;14.20;99.90;;;;;;4200983;28;20232;-90
2022/06/02 06:17:22;;;;;;;24.50;15.77;;;14.30;99.90;;;;;;4183904;28;20574;-93
2022/06/02 06:19:37;;;;;;;22.83;15.18;;;14.30;99.90;;;;;;4200495;28;20174;-90
2022/06/02 06:22:07;;;;;;;21.33;15.25;;;14.90;99.90;;;;;;4183895;28;20172;-92
2022/06/02 06:24:25;;;;;;;22.30;15.82;;;15.40;99.90;;;;;;4184035;28;20176;-91
2022/06/02 06:26:35;;;;;;;22.77;15.13;;;14.80;99.90;;;;;;4183945;28;20182;-90
2022/06/02 06:28:51;;;;;;;29.58;14.73;;;14.70;99.90;;;;;;4201570;28;20214;-90
2022/06/02 06:30:51;;;;;;;24.40;14.60;;;14.90;99.90;;;;;;4186280;28;20274;-91
2022/06/02 06:33:13;;;;;;;22.00;14.73;;;14.80;99.90;;;;;;4199803;28;20202;-90
2022/06/02 06:35:45;;;;;;;18.80;13.55;;;14.70;99.90;;;;;;4190712;28;20211;-91
2022/06/02 06:37:59;;;;;;;18.65;13.23;;;14.10;99.90;;;;;;4200791;28;20194;-90
2022/06/02 06:40:18;;;;;;;23.75;14.82;;;14.40;99.90;;;;;;4183989;28;20183;-91
2022/06/02 06:42:28;;;;;;;19.27;13.77;;;14.60;99.90;;;;;;4200157;28;20171;-91
2022/06/02 06:44:40;;;;;;;24.77;14.77;;;14.40;99.90;;;;;;4183549;28;20191;-91
2022/06/02 06:46:52;;;;;;;22.40;14.73;;;14.20;99.90;;;;;;4183426;28;20213;-90
2022/06/02 06:49:00;;;;;;;23.98;14.65;;;14.20;99.90;;;;;;4200176;28;20298;-91
2022/06/02 06:51:16;;;;;;;25.08;15.82;;;14.10;99.90;;;;;;4183714;28;20264;-91
2022/06/02 06:53:23;;;;;;;23.95;15.80;;;14.20;99.90;;;;;;4183560;28;20229;-90
2022/06/02 06:55:55;;;;;;;20.52;14.25;;;14.30;99.90;;;;;;4183477;28;20172;-92
2022/06/02 06:58:13;;;;;;;11.52;7.40;;;14.30;99.90;;;;;;4183596;28;20203;-91
2022/06/02 07:00:22;;;;;;;19.75;12.77;;;14.30;99.90;;;;;;4200205;28;20627;-91
2022/06/02 07:02:41;;;;;;;11.05;7.35;;;14.50;99.90;;;;;;4200196;28;20182;-90
2022/06/02 07:05:12;;;;;;;14.57;8.73;;;14.40;99.90;;;;;;4183471;28;20175;-91
2022/06/02 07:07:23;;;;;;;12.10;8.52;;;14.50;99.90;;;;;;4183407;28;20552;-92
2022/06/02 07:09:55;;;;;;;12.13;7.82;;;14.60;99.90;;;;;;4183754;28;20248;-91
2022/06/02 07:14:51;;;;;;;14.45;9.15;;;16.60;99.90;;;;;;4200034;28;20177;-91
2022/06/02 07:16:56;;;;;;;11.23;8.27;;;18.60;99.90;;;;;;4199464;28;20229;-92
2022/06/02 07:19:05;;;;;;;14.35;7.50;;;19.80;99.90;;;;;;4183244;28;20176;-92
2022/06/02 07:21:18;;;;;;;13.90;6.43;;;20.50;99.90;;;;;;4199965;28;20170;-93
2022/06/02 07:23:38;;;;;;;11.18;7.70;;;21.90;99.90;;;;;;4183209;28;20180;-93
2022/06/02 07:25:53;;;;;;;10.07;7.93;;;22.20;99.90;;;;;;4183034;28;20225;-90
2022/06/02 07:28:07;;;;;;;11.70;8.27;;;22.60;99.90;;;;;;4199372;28;20206;-90
2022/06/02 07:30:20;;;;;;;12.18;8.18;;;22.20;99.90;;;;;;4182957;28;20262;-92
2022/06/02 07:33:02;;;;;;;9.45;6.63;;;22.60;99.90;;;;;;4199569;28;20171;-91
2022/06/02 07:35:06;;;;;;;7.28;4.85;;;22.50;99.90;;;;;;4170135;28;20225;-91
2022/06/02 07:37:24;;;;;;;5.15;3.80;;;22.20;99.90;;;;;;4199382;28;20218;-92
2022/06/02 07:39:34;;;;;;;7.72;4.97;;;21.70;99.90;;;;;;4182978;28;20709;-92
2022/06/02 07:42:01;;;;;;;7.57;4.40;;;20.30;99.90;;;;;;4199497;28;20253;-92
2022/06/02 07:44:16;;;;;;;8.68;3.97;;;20.20;99.90;;;;;;4182647;28;20172;-94
2022/06/02 07:46:31;;;;;;;5.72;4.28;;;19.50;99.90;;;;;;4182928;28;20238;-92
2022/06/02 07:49:23;;;;;;;5.15;3.17;;;19.90;99.90;;;;;;4182753;28;20207;-92
2022/06/02 07:51:38;;;;;;;9.45;3.75;;;19.20;99.90;;;;;;4182488;28;20184;-91
2022/06/02 07:54:16;;;;;;;7.75;4.22;;;19.50;99.90;;;;;;4182561;28;20168;-89
2022/06/02 07:56:42;;;;;;;8.70;4.07;;;19.90;99.90;;;;;;4182764;28;20647;-91
2022/06/02 07:59:18;;;;;;;6.78;3.85;;;18.70;99.90;;;;;;4182481;28;20268;-90
2022/06/02 08:01:19;;;;;;;9.25;4.25;;;19.00;99.90;;;;;;4182337;28;20187;-91
2022/06/02 08:03:35;;;;;;;10.02;3.85;;;20.30;99.90;;;;;;4199390;28;20179;-91
2022/06/02 08:05:51;;;;;;;7.20;4.30;;;21.60;99.90;;;;;;4182408;28;20249;-92
2022/06/02 08:07:59;;;;;;;5.72;3.80;;;22.70;99.90;;;;;;4182014;28;20277;-92
2022/06/02 08:10:14;;;;;;;6.03;3.80;;;24.10;99.90;;;;;;4182293;28;20175;-92
2022/06/02 08:12:45;;;;;;;5.05;3.00;;;23.90;99.90;;;;;;4182165;28;20197;-91
2022/06/02 08:15:27;;;;;;;6.35;3.78;;;24.60;99.90;;;;;;4161663;28;20189;-90
2022/06/02 08:17:38;;;;;;;6.18;4.20;;;24.30;99.90;;;;;;4155084;28;21210;-91
2022/06/02 08:20:02;;;;;;;8.73;4.45;;;22.90;99.90;;;;;;4198600;28;20536;-92
2022/06/02 08:22:06;;;;;;;6.90;4.10;;;22.70;99.90;;;;;;4198827;28;20179;-91
2022/06/02 08:24:16;;;;;;;5.28;3.65;;;22.80;99.90;;;;;;4198899;28;20174;-92
2022/06/02 08:26:37;;;;;;;7.43;4.32;;;22.90;99.90;;;;;;4182278;28;20241;-93
2022/06/02 08:29:04;;;;;;;5.65;3.67;;;22.70;99.90;;;;;;4181138;28;20211;-94
2022/06/02 08:31:18;;;;;;;6.05;3.35;;;22.80;99.90;;;;;;4182190;28;20221;-91
2022/06/02 08:33:22;;;;;;;5.88;3.47;;;21.60;99.90;;;;;;4182066;28;20244;-92
2022/06/02 08:35:52;;;;;;;8.60;3.20;;;21.80;99.90;;;;;;4182093;28;20188;-92
2022/06/02 08:38:10;;;;;;;5.40;3.00;;;22.30;99.90;;;;;;4181485;28;20214;-91
2022/06/02 08:40:29;;;;;;;7.68;4.45;;;22.20;99.90;;;;;;4181894;28;20172;-91
2022/06/02 08:43:00;;;;;;;7.80;5.03;;;21.90;99.90;;;;;;4181981;28;20175;-94
2022/06/02 08:45:04;;;;;;;6.45;3.75;;;21.50;99.90;;;;;;4181944;28;20186;-91
2022/06/02 08:47:35;;;;;;;10.10;3.85;;;21.70;99.90;;;;;;4183259;28;20698;-90
2022/06/02 08:50:00;;;;;;;6.07;3.95;;;22.30;99.90;;;;;;4181337;28;20223;-92
2022/06/02 08:52:22;;;;;;;6.05;3.92;;;23.30;99.90;;;;;;4181463;28;20171;-92
2022/06/02 08:54:32;;;;;;;4.78;2.97;;;23.10;99.90;;;;;;4181671;28;20237;-92
2022/06/02 08:56:59;;;;;;;4.45;2.38;;;24.00;99.90;;;;;;4181925;28;20251;-91
2022/06/02 08:59:21;;;;;;;5.07;2.80;;;23.20;99.90;;;;;;4181923;28;20179;-93
2022/06/02 09:01:40;;;;;;;4.57;2.88;;;23.10;99.90;;;;;;4183684;28;20211;-93
2022/06/02 09:04:03;;;;;;;4.53;3.53;;;24.10;99.90;;;;;;4192697;28;20155;-92
2022/06/02 09:06:34;;;;;;;5.43;2.85;;;24.50;99.90;;;;;;4208678;28;20524;-92
2022/06/02 09:09:27;;;;;;;7.22;3.10;;;25.10;99.90;;;;;;4181519;28;20254;-94
2022/06/02 09:11:31;;;;;;;5.78;2.95;;;23.70;99.90;;;;;;4148149;28;20650;-92
2022/06/02 09:13:50;;;;;;;5.60;3.08;;;23.10;99.90;;;;;;4184021;28;20214;-91
2022/06/02 09:16:39;;;;;;;9.23;3.90;;;22.50;99.90;;;;;;4184733;28;20182;-92
2022/06/02 09:19:08;;;;;;;4.75;3.10;;;22.10;99.90;;;;;;4166516;28;20644;-91
2022/06/02 09:21:44;;;;;;;5.32;2.50;;;22.50;99.90;;;;;;4183533;28;20179;-90
2022/06/02 09:23:47;;;;;;;6.90;2.55;;;22.40;99.90;;;;;;4164251;28;20276;-91
2022/06/02 09:26:28;;;;;;;4.60;2.80;;;21.60;99.90;;;;;;4179442;28;20586;-91
2022/06/02 09:28:29;;;;;;;7.50;2.70;;;21.40;99.90;;;;;;4197672;28;20242;-92
2022/06/02 09:30:40;;;;;;;3.65;2.42;;;21.70;99.90;;;;;;4197624;28;20202;-92
2022/06/02 09:33:00;;;;;;;5.40;2.58;;;21.20;99.90;;;;;;4197689;28;20167;-86
2022/06/02 09:35:31;;;;;;;5.32;2.70;;;21.30;99.90;;;;;;4181276;28;20189;-90
2022/06/02 09:38:09;;;;;;;5.90;2.60;;;22.10;99.90;;;;;;4181153;28;20200;-90
2022/06/02 09:40:19;;;;;;;4.07;2.25;;;22.90;99.90;;;;;;4181183;28;20197;-89
2022/06/02 09:42:35;;;;;;;3.63;2.60;;;22.50;99.90;;;;;;4181286;28;20171;-89
2022/06/02 09:44:53;;;;;;;6.90;2.83;;;22.30;99.90;;;;;;4180943;28;20186;-86
2022/06/02 09:47:00;;;;;;;9.25;3.05;;;21.90;99.90;;;;;;4180845;28;20175;-87
2022/06/02 09:49:13;;;;;;;3.03;2.42;;;22.00;99.90;;;;;;4180969;28;20579;-88
2022/06/02 09:51:30;;;;;;;5.22;2.47;;;21.90;99.90;;;;;;4181022;28;20187;-86
2022/06/02 09:53:54;;;;;;;3.42;2.63;;;21.80;99.90;;;;;;4180675;28;20179;-86
2022/06/02 09:56:16;;;;;;;3.33;2.28;;;21.60;99.90;;;;;;4181228;28;20632;-88
2022/06/02 09:58:28;;;;;;;6.30;2.38;;;21.90;99.90;;;;;;4180894;28;20198;-89
2022/06/02 10:00:32;;;;;;;5.30;2.60;;;22.60;99.90;;;;;;4180948;28;20179;-88
2022/06/02 10:02:51;;;;;;;6.70;2.75;;;22.80;99.90;;;;;;4180763;28;20171;-88
2022/06/02 10:05:29;;;;;;;5.90;3.10;;;21.90;99.90;;;;;;4181002;28;20179;-90
2022/06/02 10:07:33;;;;;;;4.45;2.58;;;21.50;99.90;;;;;;4180915;28;20191;-90
2022/06/02 10:09:52;;;;;;;3.72;2.20;;;22.00;99.90;;;;;;4180747;28;20215;-88
2022/06/02 10:12:54;;;;;;;3.17;1.90;;;22.00;99.90;;;;;;4180847;28;20274;-90
2022/06/02 10:14:45;;;;;;;4.18;2.05;;;21.50;99.90;;;;;;4197315;28;20229;-90
2022/06/02 10:17:10;;;;;;;4.10;2.22;;;21.30;99.90;;;;;;4143936;28;20198;-91
2022/06/02 10:19:40;;;;;;;4.63;2.30;;;21.60;99.90;;;;;;4180703;28;20179;-91
2022/06/02 10:22:02;;;;;;;3.60;2.50;;;21.20;99.90;;;;;;4197361;28;20658;-91
2022/06/02 10:24:24;;;;;;;6.75;2.53;;;20.90;99.90;;;;;;4180957;28;20191;-89
2022/06/02 10:26:46;;;;;;;4.10;2.53;;;21.30;99.90;;;;;;4170329;28;20184;-89
2022/06/02 10:29:32;;;;;;;3.67;2.38;;;21.10;99.90;;;;;;4180661;28;20215;-90
2022/06/02 10:31:38;;;;;;;3.95;2.47;;;20.80;99.90;;;;;;4137356;28;20545;-91
2022/06/02 10:34:00;;;;;;;2.88;2.22;;;20.20;99.90;;;;;;4180706;28;20178;-89
2022/06/02 10:36:23;;;;;;;3.20;2.50;;;20.10;99.90;;;;;;4180917;28;20222;-90
2022/06/02 10:38:30;;;;;;;5.10;2.90;;;20.10;99.90;;;;;;4180704;28;20195;-90
2022/06/02 10:41:00;;;;;;;6.13;3.22;;;19.80;99.90;;;;;;4180279;28;20179;-88
2022/06/02 10:43:06;;;;;;;5.03;2.80;;;19.60;99.90;;;;;;4180487;28;20270;-89
2022/06/02 10:45:31;;;;;;;3.85;2.53;;;19.30;99.90;;;;;;4180801;28;20172;-88
2022/06/02 10:47:59;;;;;;;6.55;2.88;;;19.40;99.90;;;;;;4180366;28;20298;-89
2022/06/02 10:49:59;;;;;;;4.50;2.05;;;19.40;99.90;;;;;;4180585;28;20271;-89
2022/06/02 10:52:18;;;;;;;5.55;2.25;;;19.30;99.90;;;;;;4183066;28;20599;-89
2022/06/02 10:54:46;;;;;;;4.13;1.88;;;19.30;99.90;;;;;;4183594;28;20179;-90
2022/06/02 10:57:18;;;;;;;4.65;2.00;;;19.40;99.90;;;;;;4183542;28;20230;-88
2022/06/02 10:59:33;;;;;;;4.20;2.13;;;19.40;99.90;;;;;;4200044;28;20689;-87
2022/06/02 11:02:01;;;;;;;3.08;2.13;;;19.10;99.90;;;;;;4183498;28;20178;-86
2022/06/02 11:04:36;;;;;;;4.95;2.50;;;19.00;99.90;;;;;;4183358;28;20183;-89
2022/06/02 11:07:14;;;;;;;6.15;2.40;;;19.10;99.90;;;;;;4185452;28;20179;-90
2022/06/02 11:09:49;;;;;;;3.45;2.08;;;19.20;99.90;;;;;;4199899;28;20292;-89
2022/06/02 11:12:13;;;;;;;3.20;1.75;;;19.50;99.90;;;;;;4183539;28;20217;-90
2022/06/02 11:14:46;;;;;;;4.63;2.05;;;19.10;99.90;;;;;;4183345;28;20267;-87
2022/06/02 11:17:07;;;;;;;7.45;2.03;;;19.50;99.90;;;;;;4170885;28;20190;-89
2022/06/02 11:19:19;;;;;;;4.47;1.98;;;19.50;99.90;;;;;;4183744;28;20178;-89
2022/06/02 11:22:05;;;;;;;4.38;1.70;;;19.80;99.90;;;;;;4183477;28;20687;-89
2022/06/02 11:24:24;;;;;;;4.50;1.60;;;19.70;99.90;;;;;;4199699;28;20258;-90
2022/06/02 11:27:07;;;;;;;5.63;2.38;;;19.60;99.90;;;;;;4183100;28;20709;-88
2022/06/02 11:29:07;;;;;;;8.07;2.78;;;19.50;99.90;;;;;;4182413;28;20301;-89
2022/06/02 11:31:23;;;;;;;4.75;2.53;;;19.60;99.90;;;;;;4183587;28;20194;-89
2022/06/02 11:33:52;;;;;;;4.30;2.20;;;19.60;99.90;;;;;;4185069;28;20191;-89
2022/06/02 11:36:17;;;;;;;3.55;2.53;;;19.70;99.90;;;;;;4195806;28;20175;-89
2022/06/02 11:38:39;;;;;;;5.88;2.30;;;19.70;99.90;;;;;;4184200;28;20203;-89
2022/06/02 11:41:11;;;;;;;5.82;2.70;;;19.90;99.90;;;;;;4183369;28;20317;-89
2022/06/02 11:43:24;;;;;;;7.80;2.10;;;20.10;99.90;;;;;;4183387;28;20179;-89
2022/06/02 11:45:30;;;;;;;3.25;2.30;;;20.00;99.90;;;;;;4199780;28;20269;-91
2022/06/02 11:47:53;;;;;;;3.65;2.65;;;20.10;99.90;;;;;;4182961;28;20659;-89
2022/06/02 11:50:27;;;;;;;4.43;2.25;;;20.10;99.90;;;;;;4182936;28;20587;-89
2022/06/02 11:52:30;;;;;;;3.28;2.15;;;20.10;99.90;;;;;;4182918;28;20264;-89
2022/06/02 11:54:56;;;;;;;4.43;3.00;;;20.20;99.90;;;;;;4182911;28;20179;-87
2022/06/02 11:57:34;;;;;;;6.85;2.13;;;20.30;99.90;;;;;;4182530;28;20171;-86
2022/06/02 12:00:01;;;;;;;3.03;2.28;;;20.30;99.90;;;;;;4182907;28;20269;-90
2022/06/02 12:02:44;;;;;;;3.13;2.28;;;20.10;99.90;;;;;;4198911;28;20217;-90
2022/06/02 12:05:11;;;;;;;5.03;2.38;;;20.00;99.90;;;;;;4192896;28;20213;-88
2022/06/02 12:07:35;;;;;;;2.83;2.20;;;20.30;99.90;;;;;;4198987;28;20721;-89
2022/06/02 12:09:54;;;;;;;5.05;2.35;;;20.30;99.90;;;;;;4182282;28;20567;-89
2022/06/02 12:12:32;;;;;;;3.17;2.15;;;20.20;99.90;;;;;;4182183;28;20230;-89
2022/06/02 12:14:32;;;;;;;2.85;2.00;;;20.00;99.90;;;;;;4182139;28;20175;-90
2022/06/02 12:16:50;;;;;;;4.88;2.03;;;20.50;99.90;;;;;;4181962;28;20532;-90